LFQQ/LIL METAR and TAF weather

Enter ICAO airport designator
Station Type Date Time Source
LFQQ METAR 2019/12/13 17:00 UTC NOAA

LFQQ 131700Z AUTO 26016KT 9999 OVC046 08/03 Q0987 NOSIG


Station Type Date Time Source
LFQQ Decoded METAR 2019/12/13 17:00 UTC NOAA

Lille, France (LFQQ) 50-34N 003-06E 52M
Dec 13, 2019 - 12:00 PM EST / 2019.12.13 1700 UTC
Wind: from the W (260 degrees) at 18 MPH (16 KT):0
Visibility: greater than 7 mile(s):0
Sky conditions: overcast
Temperature: 46 F (8 C)
Dew Point: 37 F (3 C)
Relative Humidity: 70%
Pressure (altimeter): 29.15 in. Hg (0987 hPa)
ob: LFQQ 131700Z AUTO 26016KT 9999 OVC046 08/03 Q0987 NOSIG
cycle: 17

Station Type Date Time Source
LFQQ TAF 2019/12/13 12:21 UTC NOAA

TAF LFQQ 131100Z 1312/1418 27020G30KT 9999 RA OVC012
BECMG 1314/1316 26013KT NSW BKN030
TEMPO 1323/1404 3000 RA BKN013 OVC030
BECMG 1401/1403 25020G30KT
TEMPO 1410/1416 25025G40KT 4000 SHRA BKN025TCU
BECMG 1416/1418 20012KT

Example: see airport list